sensor_id;sensor_type;location;lat;lon;timestamp;P1;durP1;ratioP1;P2;durP2;ratioP2
52508;SDS011;38420;53.150;6.370;2023-09-07T00:01:45;6.97;;;3.97;;
52508;SDS011;38420;53.150;6.370;2023-09-07T00:04:11;6.07;;;3.90;;
52508;SDS011;38420;53.150;6.370;2023-09-07T00:06:37;6.28;;;4.13;;
52508;SDS011;38420;53.150;6.370;2023-09-07T00:09:04;9.27;;;3.80;;
52508;SDS011;38420;53.150;6.370;2023-09-07T00:11:31;5.35;;;3.80;;
52508;SDS011;38420;53.150;6.370;2023-09-07T00:13:57;7.10;;;4.20;;
52508;SDS011;38420;53.150;6.370;2023-09-07T00:16:24;5.78;;;4.32;;
52508;SDS011;38420;53.150;6.370;2023-09-07T00:18:50;4.90;;;4.00;;
52508;SDS011;38420;53.150;6.370;2023-09-07T00:21:15;7.20;;;4.20;;
52508;SDS011;38420;53.150;6.370;2023-09-07T00:23:41;8.75;;;4.50;;
52508;SDS011;38420;53.150;6.370;2023-09-07T00:26:07;6.60;;;4.03;;
52508;SDS011;38420;53.150;6.370;2023-09-07T00:28:33;8.18;;;4.30;;
52508;SDS011;38420;53.150;6.370;2023-09-07T00:30:59;5.50;;;4.30;;
52508;SDS011;38420;53.150;6.370;2023-09-07T00:33:24;5.53;;;3.35;;
52508;SDS011;38420;53.150;6.370;2023-09-07T00:35:50;5.90;;;3.75;;
52508;SDS011;38420;53.150;6.370;2023-09-07T00:38:16;7.20;;;3.90;;
52508;SDS011;38420;53.150;6.370;2023-09-07T00:40:44;7.70;;;4.05;;
52508;SDS011;38420;53.150;6.370;2023-09-07T00:43:12;6.10;;;3.95;;
52508;SDS011;38420;53.150;6.370;2023-09-07T00:45:38;6.60;;;4.20;;
52508;SDS011;38420;53.150;6.370;2023-09-07T00:48:04;6.93;;;3.80;;
52508;SDS011;38420;53.150;6.370;2023-09-07T00:50:31;6.85;;;4.13;;
52508;SDS011;38420;53.150;6.370;2023-09-07T00:52:57;5.13;;;3.55;;
52508;SDS011;38420;53.150;6.370;2023-09-07T00:55:24;8.77;;;4.47;;
52508;SDS011;38420;53.150;6.370;2023-09-07T00:57:52;7.22;;;4.10;;
52508;SDS011;38420;53.150;6.370;2023-09-07T01:00:18;5.70;;;4.28;;
52508;SDS011;38420;53.150;6.370;2023-09-07T01:02:44;6.18;;;4.60;;
52508;SDS011;38420;53.150;6.370;2023-09-07T01:05:10;6.10;;;4.07;;
52508;SDS011;38420;53.150;6.370;2023-09-07T01:08:10;6.75;;;4.70;;
52508;SDS011;38420;53.150;6.370;2023-09-07T01:10:40;6.90;;;4.63;;
52508;SDS011;38420;53.150;6.370;2023-09-07T01:13:06;7.53;;;4.85;;
52508;SDS011;38420;53.150;6.370;2023-09-07T01:15:32;6.43;;;5.07;;
52508;SDS011;38420;53.150;6.370;2023-09-07T01:17:57;6.30;;;5.47;;
52508;SDS011;38420;53.150;6.370;2023-09-07T01:20:24;7.57;;;5.47;;
52508;SDS011;38420;53.150;6.370;2023-09-07T01:22:51;7.45;;;6.07;;
52508;SDS011;38420;53.150;6.370;2023-09-07T01:25:17;7.50;;;5.80;;
52508;SDS011;38420;53.150;6.370;2023-09-07T01:27:43;10.18;;;6.05;;
52508;SDS011;38420;53.150;6.370;2023-09-07T01:30:09;7.60;;;5.82;;
52508;SDS011;38420;53.150;6.370;2023-09-07T01:32:36;8.70;;;6.10;;
52508;SDS011;38420;53.150;6.370;2023-09-07T01:35:02;8.35;;;6.10;;
52508;SDS011;38420;53.150;6.370;2023-09-07T01:37:29;9.20;;;6.18;;
52508;SDS011;38420;53.150;6.370;2023-09-07T01:39:55;12.23;;;6.55;;
52508;SDS011;38420;53.150;6.370;2023-09-07T01:42:21;8.93;;;7.45;;
52508;SDS011;38420;53.150;6.370;2023-09-07T01:44:46;10.45;;;6.55;;
52508;SDS011;38420;53.150;6.370;2023-09-07T01:47:12;10.80;;;7.28;;
52508;SDS011;38420;53.150;6.370;2023-09-07T01:49:38;9.18;;;7.13;;
52508;SDS011;38420;53.150;6.370;2023-09-07T01:52:03;9.40;;;7.00;;
52508;SDS011;38420;53.150;6.370;2023-09-07T01:54:29;8.20;;;6.30;;
52508;SDS011;38420;53.150;6.370;2023-09-07T01:56:55;8.65;;;7.10;;
52508;SDS011;38420;53.150;6.370;2023-09-07T01:59:21;7.43;;;6.60;;
52508;SDS011;38420;53.150;6.370;2023-09-07T02:01:47;8.18;;;6.57;;
52508;SDS011;38420;53.150;6.370;2023-09-07T02:04:12;10.52;;;7.05;;
52508;SDS011;38420;53.150;6.370;2023-09-07T02:06:38;11.57;;;6.50;;
52508;SDS011;38420;53.150;6.370;2023-09-07T02:09:04;8.48;;;6.75;;
52508;SDS011;38420;53.150;6.370;2023-09-07T02:11:30;8.13;;;6.55;;
52508;SDS011;38420;53.150;6.370;2023-09-07T02:13:55;8.40;;;6.68;;
52508;SDS011;38420;53.150;6.370;2023-09-07T02:16:21;8.68;;;5.97;;
52508;SDS011;38420;53.150;6.370;2023-09-07T02:18:48;10.18;;;6.55;;
52508;SDS011;38420;53.150;6.370;2023-09-07T02:21:14;10.38;;;5.95;;
52508;SDS011;38420;53.150;6.370;2023-09-07T02:23:40;11.52;;;6.35;;
52508;SDS011;38420;53.150;6.370;2023-09-07T02:26:06;7.82;;;6.45;;
52508;SDS011;38420;53.150;6.370;2023-09-07T02:28:31;9.80;;;6.65;;
52508;SDS011;38420;53.150;6.370;2023-09-07T02:31:03;8.35;;;6.57;;
52508;SDS011;38420;53.150;6.370;2023-09-07T02:33:29;8.10;;;6.00;;
52508;SDS011;38420;53.150;6.370;2023-09-07T02:35:55;9.65;;;7.10;;
52508;SDS011;38420;53.150;6.370;2023-09-07T02:38:22;8.55;;;7.05;;
52508;SDS011;38420;53.150;6.370;2023-09-07T02:40:47;10.77;;;7.00;;
52508;SDS011;38420;53.150;6.370;2023-09-07T02:43:13;11.32;;;7.03;;
52508;SDS011;38420;53.150;6.370;2023-09-07T02:45:38;7.85;;;7.05;;
52508;SDS011;38420;53.150;6.370;2023-09-07T02:48:05;9.88;;;7.43;;
52508;SDS011;38420;53.150;6.370;2023-09-07T02:50:32;11.45;;;7.25;;
52508;SDS011;38420;53.150;6.370;2023-09-07T02:52:59;7.97;;;6.85;;
52508;SDS011;38420;53.150;6.370;2023-09-07T02:55:25;8.77;;;7.13;;
52508;SDS011;38420;53.150;6.370;2023-09-07T02:57:51;9.43;;;6.85;;
52508;SDS011;38420;53.150;6.370;2023-09-07T03:00:17;11.40;;;7.15;;
52508;SDS011;38420;53.150;6.370;2023-09-07T03:02:45;7.80;;;6.72;;
52508;SDS011;38420;53.150;6.370;2023-09-07T03:05:11;8.73;;;6.70;;
52508;SDS011;38420;53.150;6.370;2023-09-07T03:07:37;9.43;;;6.95;;
52508;SDS011;38420;53.150;6.370;2023-09-07T03:10:04;11.95;;;8.32;;
52508;SDS011;38420;53.150;6.370;2023-09-07T03:12:30;10.55;;;7.95;;
52508;SDS011;38420;53.150;6.370;2023-09-07T03:14:56;10.82;;;7.30;;
52508;SDS011;38420;53.150;6.370;2023-09-07T03:17:21;8.52;;;7.57;;
52508;SDS011;38420;53.150;6.370;2023-09-07T03:19:47;8.90;;;6.70;;
52508;SDS011;38420;53.150;6.370;2023-09-07T03:22:13;8.90;;;6.72;;
52508;SDS011;38420;53.150;6.370;2023-09-07T03:24:39;8.88;;;6.82;;
52508;SDS011;38420;53.150;6.370;2023-09-07T03:27:05;9.23;;;7.57;;
52508;SDS011;38420;53.150;6.370;2023-09-07T03:29:31;13.98;;;7.88;;
52508;SDS011;38420;53.150;6.370;2023-09-07T03:31:58;8.48;;;7.03;;
52508;SDS011;38420;53.150;6.370;2023-09-07T03:34:25;7.80;;;7.00;;
52508;SDS011;38420;53.150;6.370;2023-09-07T03:36:50;8.57;;;7.68;;
52508;SDS011;38420;53.150;6.370;2023-09-07T03:39:16;11.68;;;8.27;;
52508;SDS011;38420;53.150;6.370;2023-09-07T03:41:43;10.27;;;7.95;;
52508;SDS011;38420;53.150;6.370;2023-09-07T03:44:09;11.10;;;8.45;;
52508;SDS011;38420;53.150;6.370;2023-09-07T03:46:35;10.68;;;8.23;;
52508;SDS011;38420;53.150;6.370;2023-09-07T03:49:01;13.05;;;8.63;;
52508;SDS011;38420;53.150;6.370;2023-09-07T03:51:27;12.45;;;7.53;;
52508;SDS011;38420;53.150;6.370;2023-09-07T03:53:53;10.38;;;8.25;;
52508;SDS011;38420;53.150;6.370;2023-09-07T03:56:19;11.05;;;8.18;;
52508;SDS011;38420;53.150;6.370;2023-09-07T03:58:44;9.23;;;7.97;;
52508;SDS011;38420;53.150;6.370;2023-09-07T04:01:12;9.45;;;8.38;;
52508;SDS011;38420;53.150;6.370;2023-09-07T04:03:38;9.82;;;7.20;;
52508;SDS011;38420;53.150;6.370;2023-09-07T04:06:05;9.10;;;8.05;;
52508;SDS011;38420;53.150;6.370;2023-09-07T04:08:31;10.90;;;7.60;;
52508;SDS011;38420;53.150;6.370;2023-09-07T04:10:57;10.00;;;7.75;;
52508;SDS011;38420;53.150;6.370;2023-09-07T04:13:22;10.45;;;8.10;;
52508;SDS011;38420;53.150;6.370;2023-09-07T04:15:48;9.55;;;7.70;;
52508;SDS011;38420;53.150;6.370;2023-09-07T04:18:14;11.82;;;8.10;;
52508;SDS011;38420;53.150;6.370;2023-09-07T04:20:41;10.73;;;7.18;;
52508;SDS011;38420;53.150;6.370;2023-09-07T04:23:07;9.90;;;7.88;;
52508;SDS011;38420;53.150;6.370;2023-09-07T04:25:33;10.23;;;7.75;;
52508;SDS011;38420;53.150;6.370;2023-09-07T04:27:59;9.90;;;8.15;;
52508;SDS011;38420;53.150;6.370;2023-09-07T04:30:25;9.82;;;8.15;;
52508;SDS011;38420;53.150;6.370;2023-09-07T04:32:51;11.35;;;8.30;;
52508;SDS011;38420;53.150;6.370;2023-09-07T04:35:17;12.23;;;8.18;;
52508;SDS011;38420;53.150;6.370;2023-09-07T04:37:43;10.30;;;7.75;;
52508;SDS011;38420;53.150;6.370;2023-09-07T04:40:09;15.63;;;9.25;;
52508;SDS011;38420;53.150;6.370;2023-09-07T04:42:35;13.35;;;8.63;;
52508;SDS011;38420;53.150;6.370;2023-09-07T04:45:03;9.75;;;7.65;;
52508;SDS011;38420;53.150;6.370;2023-09-07T04:47:30;9.00;;;7.55;;
52508;SDS011;38420;53.150;6.370;2023-09-07T04:49:55;12.13;;;8.23;;
52508;SDS011;38420;53.150;6.370;2023-09-07T04:52:21;12.98;;;8.20;;
52508;SDS011;38420;53.150;6.370;2023-09-07T04:54:47;8.38;;;7.50;;
52508;SDS011;38420;53.150;6.370;2023-09-07T04:57:15;11.57;;;8.10;;
52508;SDS011;38420;53.150;6.370;2023-09-07T04:59:42;12.13;;;9.32;;
52508;SDS011;38420;53.150;6.370;2023-09-07T05:02:07;10.93;;;8.40;;
52508;SDS011;38420;53.150;6.370;2023-09-07T05:04:33;11.98;;;9.18;;
52508;SDS011;38420;53.150;6.370;2023-09-07T05:06:59;13.68;;;8.60;;
52508;SDS011;38420;53.150;6.370;2023-09-07T05:09:24;13.13;;;8.70;;
52508;SDS011;38420;53.150;6.370;2023-09-07T05:11:50;11.15;;;8.68;;
52508;SDS011;38420;53.150;6.370;2023-09-07T05:14:17;10.98;;;8.82;;
52508;SDS011;38420;53.150;6.370;2023-09-07T05:16:43;13.82;;;8.73;;
52508;SDS011;38420;53.150;6.370;2023-09-07T05:19:09;10.18;;;7.10;;
52508;SDS011;38420;53.150;6.370;2023-09-07T05:21:35;9.50;;;8.48;;
52508;SDS011;38420;53.150;6.370;2023-09-07T05:24:00;9.77;;;8.05;;
52508;SDS011;38420;53.150;6.370;2023-09-07T05:26:26;11.15;;;8.40;;
52508;SDS011;38420;53.150;6.370;2023-09-07T05:28:53;12.68;;;8.10;;
52508;SDS011;38420;53.150;6.370;2023-09-07T05:31:18;12.20;;;8.45;;
52508;SDS011;38420;53.150;6.370;2023-09-07T05:33:44;11.60;;;8.75;;
52508;SDS011;38420;53.150;6.370;2023-09-07T05:36:10;10.98;;;9.52;;
52508;SDS011;38420;53.150;6.370;2023-09-07T05:38:35;9.30;;;7.63;;
52508;SDS011;38420;53.150;6.370;2023-09-07T05:41:02;9.73;;;8.43;;
52508;SDS011;38420;53.150;6.370;2023-09-07T05:43:27;11.38;;;8.57;;
52508;SDS011;38420;53.150;6.370;2023-09-07T05:45:53;11.20;;;7.78;;
52508;SDS011;38420;53.150;6.370;2023-09-07T05:48:18;12.50;;;8.77;;
52508;SDS011;38420;53.150;6.370;2023-09-07T05:50:44;11.93;;;8.35;;
52508;SDS011;38420;53.150;6.370;2023-09-07T05:53:10;10.35;;;7.70;;
52508;SDS011;38420;53.150;6.370;2023-09-07T05:55:36;11.00;;;8.85;;
52508;SDS011;38420;53.150;6.370;2023-09-07T05:58:05;10.43;;;8.60;;
52508;SDS011;38420;53.150;6.370;2023-09-07T06:00:32;10.60;;;8.27;;
52508;SDS011;38420;53.150;6.370;2023-09-07T06:02:59;9.40;;;7.90;;
52508;SDS011;38420;53.150;6.370;2023-09-07T06:05:24;10.65;;;7.75;;
52508;SDS011;38420;53.150;6.370;2023-09-07T06:07:50;11.05;;;7.82;;
52508;SDS011;38420;53.150;6.370;2023-09-07T06:10:16;13.35;;;7.88;;
52508;SDS011;38420;53.150;6.370;2023-09-07T06:12:42;9.43;;;7.57;;
52508;SDS011;38420;53.150;6.370;2023-09-07T06:15:08;11.25;;;7.75;;
52508;SDS011;38420;53.150;6.370;2023-09-07T06:17:34;11.98;;;7.97;;
52508;SDS011;38420;53.150;6.370;2023-09-07T06:19:59;11.90;;;7.80;;
52508;SDS011;38420;53.150;6.370;2023-09-07T06:22:25;13.82;;;8.55;;
52508;SDS011;38420;53.150;6.370;2023-09-07T06:24:51;11.25;;;7.35;;
52508;SDS011;38420;53.150;6.370;2023-09-07T06:27:16;9.60;;;7.95;;
52508;SDS011;38420;53.150;6.370;2023-09-07T06:29:42;10.70;;;7.57;;
52508;SDS011;38420;53.150;6.370;2023-09-07T06:32:08;12.35;;;7.95;;
52508;SDS011;38420;53.150;6.370;2023-09-07T06:34:33;8.80;;;7.30;;
52508;SDS011;38420;53.150;6.370;2023-09-07T06:36:59;11.57;;;7.70;;
52508;SDS011;38420;53.150;6.370;2023-09-07T06:39:24;10.02;;;7.53;;
52508;SDS011;38420;53.150;6.370;2023-09-07T06:41:50;10.07;;;7.97;;
52508;SDS011;38420;53.150;6.370;2023-09-07T06:44:16;12.95;;;10.65;;
52508;SDS011;38420;53.150;6.370;2023-09-07T06:46:41;15.43;;;12.82;;
52508;SDS011;38420;53.150;6.370;2023-09-07T06:49:07;16.05;;;12.65;;
52508;SDS011;38420;53.150;6.370;2023-09-07T06:51:33;15.57;;;12.73;;
52508;SDS011;38420;53.150;6.370;2023-09-07T06:53:59;17.10;;;11.85;;
52508;SDS011;38420;53.150;6.370;2023-09-07T06:56:24;15.70;;;10.43;;
52508;SDS011;38420;53.150;6.370;2023-09-07T06:58:51;13.75;;;9.13;;
52508;SDS011;38420;53.150;6.370;2023-09-07T07:01:17;11.60;;;8.60;;
52508;SDS011;38420;53.150;6.370;2023-09-07T07:03:43;11.07;;;8.02;;
52508;SDS011;38420;53.150;6.370;2023-09-07T07:06:09;8.98;;;7.93;;
52508;SDS011;38420;53.150;6.370;2023-09-07T07:08:34;9.85;;;6.90;;
52508;SDS011;38420;53.150;6.370;2023-09-07T07:11:00;9.50;;;6.82;;
52508;SDS011;38420;53.150;6.370;2023-09-07T07:13:25;9.45;;;6.90;;
52508;SDS011;38420;53.150;6.370;2023-09-07T07:15:51;8.15;;;6.60;;
52508;SDS011;38420;53.150;6.370;2023-09-07T07:18:17;8.98;;;6.07;;
52508;SDS011;38420;53.150;6.370;2023-09-07T07:20:43;7.60;;;5.95;;
52508;SDS011;38420;53.150;6.370;2023-09-07T07:23:09;7.45;;;6.28;;
52508;SDS011;38420;53.150;6.370;2023-09-07T07:25:36;7.93;;;6.50;;
52508;SDS011;38420;53.150;6.370;2023-09-07T07:28:02;8.13;;;5.63;;
52508;SDS011;38420;53.150;6.370;2023-09-07T07:30:31;9.27;;;6.43;;
52508;SDS011;38420;53.150;6.370;2023-09-07T07:33:01;10.32;;;5.82;;
52508;SDS011;38420;53.150;6.370;2023-09-07T07:35:29;8.07;;;5.82;;
52508;SDS011;38420;53.150;6.370;2023-09-07T07:37:58;7.78;;;5.70;;
52508;SDS011;38420;53.150;6.370;2023-09-07T07:40:23;6.88;;;6.03;;
52508;SDS011;38420;53.150;6.370;2023-09-07T07:42:51;9.05;;;6.45;;
52508;SDS011;38420;53.150;6.370;2023-09-07T07:45:17;7.68;;;6.13;;
52508;SDS011;38420;53.150;6.370;2023-09-07T07:47:45;9.48;;;6.40;;
52508;SDS011;38420;53.150;6.370;2023-09-07T07:50:11;9.55;;;5.85;;
52508;SDS011;38420;53.150;6.370;2023-09-07T07:52:36;6.47;;;5.68;;
52508;SDS011;38420;53.150;6.370;2023-09-07T07:55:02;6.65;;;5.60;;
52508;SDS011;38420;53.150;6.370;2023-09-07T07:57:28;14.20;;;10.82;;
52508;SDS011;38420;53.150;6.370;2023-09-07T07:59:53;10.18;;;6.47;;
52508;SDS011;38420;53.150;6.370;2023-09-07T08:02:20;7.10;;;5.63;;
52508;SDS011;38420;53.150;6.370;2023-09-07T08:04:46;7.40;;;5.63;;
52508;SDS011;38420;53.150;6.370;2023-09-07T08:07:12;8.07;;;6.53;;
52508;SDS011;38420;53.150;6.370;2023-09-07T08:09:37;7.25;;;6.05;;
52508;SDS011;38420;53.150;6.370;2023-09-07T08:12:03;8.55;;;5.00;;
52508;SDS011;38420;53.150;6.370;2023-09-07T08:14:30;8.25;;;4.95;;
52508;SDS011;38420;53.150;6.370;2023-09-07T08:16:57;7.68;;;4.72;;
52508;SDS011;38420;53.150;6.370;2023-09-07T08:19:23;10.50;;;5.03;;
52508;SDS011;38420;53.150;6.370;2023-09-07T08:21:49;6.88;;;5.20;;
52508;SDS011;38420;53.150;6.370;2023-09-07T08:24:15;6.80;;;4.88;;
52508;SDS011;38420;53.150;6.370;2023-09-07T08:26:41;7.82;;;4.68;;
52508;SDS011;38420;53.150;6.370;2023-09-07T08:29:07;6.57;;;4.40;;
52508;SDS011;38420;53.150;6.370;2023-09-07T08:31:37;5.72;;;4.60;;
52508;SDS011;38420;53.150;6.370;2023-09-07T08:34:05;7.40;;;5.68;;
52508;SDS011;38420;53.150;6.370;2023-09-07T08:36:34;8.27;;;4.65;;
52508;SDS011;38420;53.150;6.370;2023-09-07T08:39:06;9.50;;;4.93;;
52508;SDS011;38420;53.150;6.370;2023-09-07T08:41:38;7.32;;;4.10;;
52508;SDS011;38420;53.150;6.370;2023-09-07T08:44:09;6.03;;;4.90;;
52508;SDS011;38420;53.150;6.370;2023-09-07T08:46:36;5.15;;;4.35;;
52508;SDS011;38420;53.150;6.370;2023-09-07T08:49:03;6.60;;;4.00;;
52508;SDS011;38420;53.150;6.370;2023-09-07T08:51:29;5.88;;;3.90;;
52508;SDS011;38420;53.150;6.370;2023-09-07T08:53:57;7.25;;;4.07;;
52508;SDS011;38420;53.150;6.370;2023-09-07T08:56:23;5.28;;;3.35;;
52508;SDS011;38420;53.150;6.370;2023-09-07T08:58:49;4.78;;;3.65;;
52508;SDS011;38420;53.150;6.370;2023-09-07T09:01:15;6.05;;;4.35;;
52508;SDS011;38420;53.150;6.370;2023-09-07T09:03:45;3.97;;;3.40;;
52508;SDS011;38420;53.150;6.370;2023-09-07T09:06:11;4.32;;;3.92;;
52508;SDS011;38420;53.150;6.370;2023-09-07T09:08:41;4.30;;;3.75;;
52508;SDS011;38420;53.150;6.370;2023-09-07T09:11:17;3.95;;;3.53;;
52508;SDS011;38420;53.150;6.370;2023-09-07T09:13:43;7.57;;;4.82;;
52508;SDS011;38420;53.150;6.370;2023-09-07T09:16:10;6.30;;;3.53;;
52508;SDS011;38420;53.150;6.370;2023-09-07T09:18:37;4.82;;;3.80;;
52508;SDS011;38420;53.150;6.370;2023-09-07T09:21:04;5.18;;;3.85;;
52508;SDS011;38420;53.150;6.370;2023-09-07T09:23:33;5.07;;;4.00;;
52508;SDS011;38420;53.150;6.370;2023-09-07T09:26:03;5.82;;;3.58;;
52508;SDS011;38420;53.150;6.370;2023-09-07T09:30:57;3.90;;;3.50;;
52508;SDS011;38420;53.150;6.370;2023-09-07T09:33:23;4.35;;;3.50;;
52508;SDS011;38420;53.150;6.370;2023-09-07T09:35:50;6.85;;;4.13;;
52508;SDS011;38420;53.150;6.370;2023-09-07T09:38:18;4.43;;;3.58;;
52508;SDS011;38420;53.150;6.370;2023-09-07T09:40:44;6.43;;;3.80;;
52508;SDS011;38420;53.150;6.370;2023-09-07T09:43:10;5.85;;;3.90;;
52508;SDS011;38420;53.150;6.370;2023-09-07T09:45:37;5.80;;;3.85;;
52508;SDS011;38420;53.150;6.370;2023-09-07T09:48:03;5.03;;;4.40;;
52508;SDS011;38420;53.150;6.370;2023-09-07T09:50:30;5.75;;;4.00;;
52508;SDS011;38420;53.150;6.370;2023-09-07T09:52:56;6.78;;;3.72;;
52508;SDS011;38420;53.150;6.370;2023-09-07T09:55:23;7.47;;;4.25;;
52508;SDS011;38420;53.150;6.370;2023-09-07T09:57:49;6.35;;;4.30;;
52508;SDS011;38420;53.150;6.370;2023-09-07T10:00:15;4.53;;;3.67;;
52508;SDS011;38420;53.150;6.370;2023-09-07T10:02:48;5.40;;;4.20;;
52508;SDS011;38420;53.150;6.370;2023-09-07T10:05:18;6.38;;;4.03;;
52508;SDS011;38420;53.150;6.370;2023-09-07T10:07:44;5.07;;;4.20;;
52508;SDS011;38420;53.150;6.370;2023-09-07T10:10:13;6.60;;;4.20;;
52508;SDS011;38420;53.150;6.370;2023-09-07T10:12:43;6.03;;;4.07;;
52508;SDS011;38420;53.150;6.370;2023-09-07T10:15:22;6.10;;;4.18;;
52508;SDS011;38420;53.150;6.370;2023-09-07T10:18:13;10.65;;;4.50;;
52508;SDS011;38420;53.150;6.370;2023-09-07T10:20:53;5.70;;;4.07;;
52508;SDS011;38420;53.150;6.370;2023-09-07T10:23:23;6.35;;;4.22;;
52508;SDS011;38420;53.150;6.370;2023-09-07T10:26:13;7.57;;;4.72;;
52508;SDS011;38420;53.150;6.370;2023-09-07T10:28:42;6.03;;;4.07;;
52508;SDS011;38420;53.150;6.370;2023-09-07T10:31:18;6.55;;;4.35;;
52508;SDS011;38420;53.150;6.370;2023-09-07T10:33:45;6.35;;;4.07;;
52508;SDS011;38420;53.150;6.370;2023-09-07T10:36:21;6.95;;;4.60;;
52508;SDS011;38420;53.150;6.370;2023-09-07T10:38:49;6.82;;;4.47;;
52508;SDS011;38420;53.150;6.370;2023-09-07T10:41:17;5.22;;;4.15;;
52508;SDS011;38420;53.150;6.370;2023-09-07T10:43:49;5.38;;;4.35;;
52508;SDS011;38420;53.150;6.370;2023-09-07T10:46:19;7.22;;;4.53;;
52508;SDS011;38420;53.150;6.370;2023-09-07T10:48:48;5.63;;;4.10;;
52508;SDS011;38420;53.150;6.370;2023-09-07T10:51:18;7.45;;;4.55;;
52508;SDS011;38420;53.150;6.370;2023-09-07T10:53:44;5.97;;;4.13;;
52508;SDS011;38420;53.150;6.370;2023-09-07T10:56:10;6.95;;;5.15;;
52508;SDS011;38420;53.150;6.370;2023-09-07T10:58:36;5.00;;;4.25;;
52508;SDS011;38420;53.150;6.370;2023-09-07T11:01:07;7.05;;;4.95;;
52508;SDS011;38420;53.150;6.370;2023-09-07T11:03:34;6.70;;;4.50;;
52508;SDS011;38420;53.150;6.370;2023-09-07T11:08:30;7.72;;;4.30;;
52508;SDS011;38420;53.150;6.370;2023-09-07T11:10:55;6.15;;;4.30;;
52508;SDS011;38420;53.150;6.370;2023-09-07T11:13:22;6.35;;;4.13;;
52508;SDS011;38420;53.150;6.370;2023-09-07T11:15:49;6.53;;;4.50;;
52508;SDS011;38420;53.150;6.370;2023-09-07T11:18:20;8.65;;;4.57;;
52508;SDS011;38420;53.150;6.370;2023-09-07T11:20:49;6.63;;;4.57;;
52508;SDS011;38420;53.150;6.370;2023-09-07T11:23:16;5.00;;;4.22;;
52508;SDS011;38420;53.150;6.370;2023-09-07T11:25:43;5.82;;;4.13;;
52508;SDS011;38420;53.150;6.370;2023-09-07T11:28:09;6.65;;;4.47;;
52508;SDS011;38420;53.150;6.370;2023-09-07T11:30:36;7.07;;;4.57;;
52508;SDS011;38420;53.150;6.370;2023-09-07T11:33:04;6.28;;;4.35;;
52508;SDS011;38420;53.150;6.370;2023-09-07T11:35:31;7.80;;;4.47;;
52508;SDS011;38420;53.150;6.370;2023-09-07T11:37:59;12.10;;;4.70;;
52508;SDS011;38420;53.150;6.370;2023-09-07T11:40:30;6.85;;;3.70;;
52508;SDS011;38420;53.150;6.370;2023-09-07T11:42:56;7.03;;;4.82;;
52508;SDS011;38420;53.150;6.370;2023-09-07T11:45:21;5.70;;;4.70;;
52508;SDS011;38420;53.150;6.370;2023-09-07T11:47:47;5.80;;;4.75;;
52508;SDS011;38420;53.150;6.370;2023-09-07T11:50:13;6.15;;;4.07;;
52508;SDS011;38420;53.150;6.370;2023-09-07T11:52:42;5.25;;;4.10;;
52508;SDS011;38420;53.150;6.370;2023-09-07T11:55:08;6.85;;;4.38;;
52508;SDS011;38420;53.150;6.370;2023-09-07T11:57:35;6.35;;;4.00;;
52508;SDS011;38420;53.150;6.370;2023-09-07T12:00:01;5.80;;;4.10;;
52508;SDS011;38420;53.150;6.370;2023-09-07T12:02:28;5.00;;;4.00;;
52508;SDS011;38420;53.150;6.370;2023-09-07T12:04:53;6.40;;;4.40;;
52508;SDS011;38420;53.150;6.370;2023-09-07T12:07:19;7.20;;;4.63;;
52508;SDS011;38420;53.150;6.370;2023-09-07T12:09:45;5.90;;;3.53;;
52508;SDS011;38420;53.150;6.370;2023-09-07T12:12:10;6.28;;;4.03;;
52508;SDS011;38420;53.150;6.370;2023-09-07T12:14:36;6.15;;;3.92;;
52508;SDS011;38420;53.150;6.370;2023-09-07T12:17:02;5.80;;;3.80;;
52508;SDS011;38420;53.150;6.370;2023-09-07T12:19:28;5.40;;;3.40;;
52508;SDS011;38420;53.150;6.370;2023-09-07T12:21:53;5.05;;;3.90;;
52508;SDS011;38420;53.150;6.370;2023-09-07T12:24:19;4.85;;;3.72;;
52508;SDS011;38420;53.150;6.370;2023-09-07T12:26:45;5.15;;;3.55;;
52508;SDS011;38420;53.150;6.370;2023-09-07T12:29:11;6.85;;;3.70;;
52508;SDS011;38420;53.150;6.370;2023-09-07T12:31:36;4.72;;;3.78;;
52508;SDS011;38420;53.150;6.370;2023-09-07T12:34:02;6.40;;;4.03;;
52508;SDS011;38420;53.150;6.370;2023-09-07T12:36:28;5.53;;;3.83;;
52508;SDS011;38420;53.150;6.370;2023-09-07T12:38:55;6.15;;;3.33;;
52508;SDS011;38420;53.150;6.370;2023-09-07T12:41:26;4.38;;;3.20;;
52508;SDS011;38420;53.150;6.370;2023-09-07T12:43:55;4.80;;;3.85;;
52508;SDS011;38420;53.150;6.370;2023-09-07T12:46:21;6.82;;;3.67;;
52508;SDS011;38420;53.150;6.370;2023-09-07T12:48:47;4.88;;;3.80;;
52508;SDS011;38420;53.150;6.370;2023-09-07T12:51:12;6.43;;;3.90;;
52508;SDS011;38420;53.150;6.370;2023-09-07T12:53:38;4.10;;;3.25;;
52508;SDS011;38420;53.150;6.370;2023-09-07T12:56:05;6.25;;;3.55;;
52508;SDS011;38420;53.150;6.370;2023-09-07T12:58:30;4.40;;;3.83;;
52508;SDS011;38420;53.150;6.370;2023-09-07T13:00:56;5.10;;;3.83;;
52508;SDS011;38420;53.150;6.370;2023-09-07T13:03:22;6.55;;;3.80;;
52508;SDS011;38420;53.150;6.370;2023-09-07T13:05:47;5.80;;;3.50;;
52508;SDS011;38420;53.150;6.370;2023-09-07T13:08:13;6.10;;;3.88;;
52508;SDS011;38420;53.150;6.370;2023-09-07T13:10:39;4.97;;;3.65;;
52508;SDS011;38420;53.150;6.370;2023-09-07T13:13:05;6.22;;;3.90;;
52508;SDS011;38420;53.150;6.370;2023-09-07T13:15:31;6.68;;;3.63;;
52508;SDS011;38420;53.150;6.370;2023-09-07T13:17:56;4.05;;;3.25;;
52508;SDS011;38420;53.150;6.370;2023-09-07T13:20:22;5.47;;;4.45;;
52508;SDS011;38420;53.150;6.370;2023-09-07T13:22:48;6.28;;;4.00;;
52508;SDS011;38420;53.150;6.370;2023-09-07T13:25:13;6.97;;;4.28;;
52508;SDS011;38420;53.150;6.370;2023-09-07T13:27:39;8.27;;;4.25;;
52508;SDS011;38420;53.150;6.370;2023-09-07T13:30:05;5.15;;;4.03;;
52508;SDS011;38420;53.150;6.370;2023-09-07T13:32:33;6.93;;;4.43;;
52508;SDS011;38420;53.150;6.370;2023-09-07T13:34:59;6.57;;;4.00;;
52508;SDS011;38420;53.150;6.370;2023-09-07T13:37:25;8.85;;;4.45;;
52508;SDS011;38420;53.150;6.370;2023-09-07T13:39:50;12.52;;;4.95;;
52508;SDS011;38420;53.150;6.370;2023-09-07T13:42:16;11.77;;;4.18;;
52508;SDS011;38420;53.150;6.370;2023-09-07T13:44:42;4.95;;;3.70;;
52508;SDS011;38420;53.150;6.370;2023-09-07T13:47:10;6.85;;;4.43;;
52508;SDS011;38420;53.150;6.370;2023-09-07T13:49:36;5.57;;;4.45;;
52508;SDS011;38420;53.150;6.370;2023-09-07T13:52:01;4.97;;;4.07;;
52508;SDS011;38420;53.150;6.370;2023-09-07T13:54:28;8.88;;;4.30;;
52508;SDS011;38420;53.150;6.370;2023-09-07T13:56:54;6.57;;;4.13;;
52508;SDS011;38420;53.150;6.370;2023-09-07T13:59:19;5.53;;;3.58;;
52508;SDS011;38420;53.150;6.370;2023-09-07T14:01:45;4.57;;;3.95;;
52508;SDS011;38420;53.150;6.370;2023-09-07T14:04:10;4.53;;;3.83;;
52508;SDS011;38420;53.150;6.370;2023-09-07T14:06:36;7.00;;;4.35;;
52508;SDS011;38420;53.150;6.370;2023-09-07T14:09:02;7.32;;;4.30;;
52508;SDS011;38420;53.150;6.370;2023-09-07T14:11:27;6.72;;;4.45;;
52508;SDS011;38420;53.150;6.370;2023-09-07T14:13:53;4.97;;;3.90;;
52508;SDS011;38420;53.150;6.370;2023-09-07T14:16:19;5.72;;;3.83;;
52508;SDS011;38420;53.150;6.370;2023-09-07T14:18:46;9.23;;;4.43;;
52508;SDS011;38420;53.150;6.370;2023-09-07T14:21:14;5.40;;;4.35;;
52508;SDS011;38420;53.150;6.370;2023-09-07T14:23:41;5.47;;;3.80;;
52508;SDS011;38420;53.150;6.370;2023-09-07T14:26:10;8.10;;;4.13;;
52508;SDS011;38420;53.150;6.370;2023-09-07T14:28:36;6.97;;;4.32;;
52508;SDS011;38420;53.150;6.370;2023-09-07T14:31:03;4.93;;;3.83;;
52508;SDS011;38420;53.150;6.370;2023-09-07T14:33:31;6.13;;;3.78;;
52508;SDS011;38420;53.150;6.370;2023-09-07T14:35:57;3.90;;;3.40;;
52508;SDS011;38420;53.150;6.370;2023-09-07T14:38:23;6.10;;;4.55;;
52508;SDS011;38420;53.150;6.370;2023-09-07T14:40:51;6.97;;;3.70;;
52508;SDS011;38420;53.150;6.370;2023-09-07T14:43:19;5.72;;;3.80;;
52508;SDS011;38420;53.150;6.370;2023-09-07T14:45:45;5.68;;;4.28;;